To NAV CANADA Home Page Login to a new session Search on AWWS site Disclaimer Vers la page française équivalente Tips FAQ What's new on the site To the Forecasts and Observations / NOTAM section To "File a Flight Plan" website Publications and other links Update of the User's profile FIC Telephone Numbers My Weather Data Folder Route Weather Data Regional Weather Data Local Weather Data To the Forecasts and Observations / NOTAM section
Request Generated 03/19/2019 at 23:06:54 UTC . Weather information available at that time is displayed.

METAR/TAF

FORT ST. JOHN/BC    

METAR CYXJ 192300Z 11007KT 60SM BKN240 10/M02 A3009 RMK CI5 SLP212=
METAR CYXJ 192200Z 11007KT 60SM BKN240 10/M02 A3010 RMK CI5 SLP216=
METAR CYXJ 192100Z 11005KT 60SM SCT240 09/M03 A3011 RMK CI3 SLP222=

TAF CYXJ 191838Z 1919/2007 24006KT P6SM FEW240
BECMG 1921/1923 11006KT
BECMG 2003/2005 09008KT
RMK NXT FCST BY 200100Z=
Your time UTC time
Weather data provided by Environment Canada and NAV CANADA